Nd Pistis — 9HA4695 — position and weather

sailwx.info

Track history (hours):
 
Tides and Currents Weather Stations Pressure Air Temp Water Temp Dewpoint Dewpoint Depression Visibility Wind Speed Wind Dir Waves Ship Positions

Nd Pistis

Last reported at 2018-Jun-18 08:00 UTC. Time now 2018-Jun-18 07:59 UTC.
Position N 46°11' W 125°11'.

Length 189 m; draft 7.2 m.

Type: Ship. MMSI: 248534000.

Date/timePositionNaut miles runAvg speedWind from/ knotsBaromVisibWave heightAir tempDewpointWater temp
2018-Jun-18 08:00N 46°11' W 125°11'1 1.8
2018-Jun-18 07:30N 46°12' W 125°11'1 1.7
2018-Jun-18 07:00N 46°13' W 125°11'3 6.2
2018-Jun-18 06:30N 46°13' W 125°07'510.6
2018-Jun-18 06:00N 46°13' W 124°59'510.6
2018-Jun-18 05:30N 46°14' W 124°51'0 0.4
2018-Jun-18 05:00N 46°14' W 124°52'1 1.7
2018-Jun-18 04:30N 46°14' W 124°53'1 1.5
2018-Jun-18 04:00N 46°14' W 124°54'1 1.5
2018-Jun-18 03:30N 46°14' W 124°55'1 1.6
2018-Jun-18 03:00N 46°14' W 124°56'1 1.4
2018-Jun-18 02:06N 46°14' W 124°58'0 1.8
2018-Jun-18 02:00N 46°15' W 124°58'1 1.4
2018-Jun-18 01:30N 46°15' W 124°59'2 4.3
2018-Jun-18 01:00N 46°14' W 124°56'510.9
2018-Jun-18 00:30N 46°13' W 124°48'1 1.3
2018-Jun-18 00:00N 46°13' W 124°49'1 1.6
2018-Jun-17 23:30N 46°13' W 124°50'1 1.4
2018-Jun-17 22:47N 46°13' W 124°52'0 0.3
2018-Jun-17 22:30N 46°13' W 124°52'510.0
2018-Jun-17 22:00N 46°10' W 124°57'6 8.7
2018-Jun-17 21:21N 46°05' W 125°01'1 2.1
2018-Jun-17 20:57N 46°05' W 125°00'1 2.3
2018-Jun-17 20:23N 46°07' W 125°00'1 2.2
2018-Jun-17 20:00N 46°07' W 125°00'1 2.2
2018-Jun-17 19:30N 46°09' W 125°00'1 2.3
2018-Jun-17 19:00N 46°10' W 125°00'1 2.1
2018-Jun-17 18:31N 46°11' W 124°60'1 2.0
2018-Jun-17 18:01N 46°12' W 124°60'1 2.1
2018-Jun-17 17:30N 46°13' W 124°59'1 1.7
2018-Jun-17 17:00N 46°13' W 124°58'2 4.4
2018-Jun-17 16:31N 46°12' W 124°55'2 4.0
2018-Jun-17 15:56N 46°11' W 124°53'1 2.9
2018-Jun-17 15:30N 46°11' W 124°51'2 3.2
2018-Jun-17 15:00N 46°10' W 124°49'1 2.4
2018-Jun-17 14:30N 46°10' W 124°50'1 2.8
2018-Jun-17 14:01N 46°11' W 124°52'1 2.7
2018-Jun-17 13:30N 46°12' W 124°53'2 3.1
2018-Jun-17 13:00N 46°14' W 124°55'0 0.2
2018-Jun-17 12:30N 46°14' W 124°55'2 3.9
2018-Jun-17 12:00N 46°12' W 124°53'1 2.4
2018-Jun-17 11:30N 46°11' W 124°52'2 3.2
2018-Jun-17 11:00N 46°10' W 124°50'0 0.7
2018-Jun-17 10:30N 46°10' W 124°51'2 3.7
2018-Jun-17 09:51N 46°11' W 124°53'1 3.2
2018-Jun-17 09:30N 46°12' W 124°55'2 3.6
2018-Jun-17 09:01N 46°13' W 124°57'2 3.5
2018-Jun-17 08:30N 46°15' W 124°58'2 3.6
2018-Jun-17 08:00N 46°15' W 125°00'3 5.4
2018-Jun-17 07:30N 46°13' W 124°60'2 3.9
2018-Jun-17 06:59N 46°11' W 124°58'1 2.4
2018-Jun-17 06:30N 46°11' W 124°57'2 4.2
2018-Jun-17 06:00N 46°10' W 124°54'2 4.2
2018-Jun-17 05:30N 46°09' W 124°51'1 2.4
2018-Jun-17 05:00N 46°09' W 124°50'3 6.3
2018-Jun-17 04:30N 46°11' W 124°54'3 6.7
2018-Jun-17 04:01N 46°12' W 124°58'3 5.1
2018-Jun-17 03:30N 46°13' W 125°01'2 3.9
2018-Jun-17 03:00N 46°12' W 124°59'2 4.4
2018-Jun-17 02:30N 46°11' W 124°56'2 4.2
2018-Jun-17 02:00N 46°11' W 124°53'2 4.4
2018-Jun-17 01:30N 46°10' W 124°50'1 2.5
2018-Jun-17 01:00N 46°11' W 124°52'4 7.2
2018-Jun-17 00:30N 46°12' W 124°56'2 4.6
2018-Jun-17 00:00N 46°13' W 124°59'2 4.1
2018-Jun-16 23:30N 46°13' W 124°57'2 4.0
2018-Jun-16 23:01N 46°12' W 124°54'2 3.5
2018-Jun-16 22:30N 46°13' W 124°51'1 2.2
2018-Jun-16 22:00N 46°14' W 124°51'1 1.4
2018-Jun-16 21:31N 46°14' W 124°50'1 1.8
2018-Jun-16 21:00N 46°15' W 124°51'713.8
2018-Jun-16 20:31N 46°15' W 125°01'714.0
2018-Jun-16 20:00N 46°15' W 125°12'814.1
2018-Jun-16 19:28N 46°15' W 125°23'813.7
2018-Jun-16 18:52N 46°15' W 125°34'  
Track history (hours):
 
Tides and Currents Weather Stations Pressure Air Temp Water Temp Dewpoint Dewpoint Depression Visibility Wind Speed Wind Dir Waves Ship Positions

Nd Pistis

Last reported at 2018-Jun-18 08:00 UTC. Time now 2018-Jun-18 07:59 UTC.
Position N 46°11' W 125°11'.

Length 189 m; draft 7.2 m.

Type: Ship. MMSI: 248534000.

Date/timePositionNaut miles runAvg speedWind from/ knotsBaromVisibWave heightAir tempDewpointWater temp
2018-Jun-18 08:00N 46°11' W 125°11'1 1.8
2018-Jun-18 07:30N 46°12' W 125°11'1 1.7
2018-Jun-18 07:00N 46°13' W 125°11'3 6.2
2018-Jun-18 06:30N 46°13' W 125°07'510.6
2018-Jun-18 06:00N 46°13' W 124°59'510.6
2018-Jun-18 05:30N 46°14' W 124°51'0 0.4
2018-Jun-18 05:00N 46°14' W 124°52'1 1.7
2018-Jun-18 04:30N 46°14' W 124°53'1 1.5
2018-Jun-18 04:00N 46°14' W 124°54'1 1.5
2018-Jun-18 03:30N 46°14' W 124°55'1 1.6
2018-Jun-18 03:00N 46°14' W 124°56'1 1.4
2018-Jun-18 02:06N 46°14' W 124°58'0 1.8
2018-Jun-18 02:00N 46°15' W 124°58'1 1.4
2018-Jun-18 01:30N 46°15' W 124°59'2 4.3
2018-Jun-18 01:00N 46°14' W 124°56'510.9
2018-Jun-18 00:30N 46°13' W 124°48'1 1.3
2018-Jun-18 00:00N 46°13' W 124°49'1 1.6
2018-Jun-17 23:30N 46°13' W 124°50'1 1.4
2018-Jun-17 22:47N 46°13' W 124°52'0 0.3
2018-Jun-17 22:30N 46°13' W 124°52'510.0
2018-Jun-17 22:00N 46°10' W 124°57'6 8.7
2018-Jun-17 21:21N 46°05' W 125°01'1 2.1
2018-Jun-17 20:57N 46°05' W 125°00'1 2.3
2018-Jun-17 20:23N 46°07' W 125°00'1 2.2
2018-Jun-17 20:00N 46°07' W 125°00'1 2.2
2018-Jun-17 19:30N 46°09' W 125°00'1 2.3
2018-Jun-17 19:00N 46°10' W 125°00'1 2.1
2018-Jun-17 18:31N 46°11' W 124°60'1 2.0
2018-Jun-17 18:01N 46°12' W 124°60'1 2.1
2018-Jun-17 17:30N 46°13' W 124°59'1 1.7
2018-Jun-17 17:00N 46°13' W 124°58'2 4.4
2018-Jun-17 16:31N 46°12' W 124°55'2 4.0
2018-Jun-17 15:56N 46°11' W 124°53'1 2.9
2018-Jun-17 15:30N 46°11' W 124°51'2 3.2
2018-Jun-17 15:00N 46°10' W 124°49'1 2.4
2018-Jun-17 14:30N 46°10' W 124°50'1 2.8
2018-Jun-17 14:01N 46°11' W 124°52'1 2.7
2018-Jun-17 13:30N 46°12' W 124°53'2 3.1
2018-Jun-17 13:00N 46°14' W 124°55'0 0.2
2018-Jun-17 12:30N 46°14' W 124°55'2 3.9
2018-Jun-17 12:00N 46°12' W 124°53'1 2.4
2018-Jun-17 11:30N 46°11' W 124°52'2 3.2
2018-Jun-17 11:00N 46°10' W 124°50'0 0.7
2018-Jun-17 10:30N 46°10' W 124°51'2 3.7
2018-Jun-17 09:51N 46°11' W 124°53'1 3.2
2018-Jun-17 09:30N 46°12' W 124°55'2 3.6
2018-Jun-17 09:01N 46°13' W 124°57'2 3.5
2018-Jun-17 08:30N 46°15' W 124°58'2 3.6
2018-Jun-17 08:00N 46°15' W 125°00'3 5.4
2018-Jun-17 07:30N 46°13' W 124°60'2 3.9
2018-Jun-17 06:59N 46°11' W 124°58'1 2.4
2018-Jun-17 06:30N 46°11' W 124°57'2 4.2
2018-Jun-17 06:00N 46°10' W 124°54'2 4.2
2018-Jun-17 05:30N 46°09' W 124°51'1 2.4
2018-Jun-17 05:00N 46°09' W 124°50'3 6.3
2018-Jun-17 04:30N 46°11' W 124°54'3 6.7
2018-Jun-17 04:01N 46°12' W 124°58'3 5.1
2018-Jun-17 03:30N 46°13' W 125°01'2 3.9
2018-Jun-17 03:00N 46°12' W 124°59'2 4.4
2018-Jun-17 02:30N 46°11' W 124°56'2 4.2
2018-Jun-17 02:00N 46°11' W 124°53'2 4.4
2018-Jun-17 01:30N 46°10' W 124°50'1 2.5
2018-Jun-17 01:00N 46°11' W 124°52'4 7.2
2018-Jun-17 00:30N 46°12' W 124°56'2 4.6
2018-Jun-17 00:00N 46°13' W 124°59'2 4.1
2018-Jun-16 23:30N 46°13' W 124°57'2 4.0
2018-Jun-16 23:01N 46°12' W 124°54'2 3.5
2018-Jun-16 22:30N 46°13' W 124°51'1 2.2
2018-Jun-16 22:00N 46°14' W 124°51'1 1.4
2018-Jun-16 21:31N 46°14' W 124°50'1 1.8
2018-Jun-16 21:00N 46°15' W 124°51'713.8
2018-Jun-16 20:31N 46°15' W 125°01'714.0
2018-Jun-16 20:00N 46°15' W 125°12'814.1
2018-Jun-16 19:28N 46°15' W 125°23'813.7
2018-Jun-16 18:52N 46°15' W 125°34'  

Dump ship's entire track history